Latest Weather Observations for Point Fawcett

IDD60801

Issued at 6:51 pm CST Tuesday 23 October 2018 (issued every 10 minutes, with the page automatically refreshed every 10 minutes)

About weather observations | Map of weather stations | Latest weather observations for NT | Other Formats
Station Details ID: 200731 Name: POINT FAWCETT Lat: -11.76 Lon: 130.03 Height: 6.5 m
Data from the previous 72 hours. | See also: Recent months at Point Fawcett
Date/Time
CST
Temp
°C
App
Temp
°C
Dew
Point
°C
Rel
Hum
%
Delta-T
°C
Wind Press
QNH
hPa
Press
MSL
hPa
Rain since
9am
mm
Dir  Spd
km/h
Gust
km/h
Spd
kts
Gust
kts
23/06:30pm 30.0 34.0 25.1 75 3.4 WNW 13 17 7 9 1009.3 - 0.0
23/06:00pm 30.3 34.5 25.4 75 3.5 W 13 19 7 10 1008.8 1008.7 0.0
23/05:30pm 30.7 34.7 25.1 72 3.9 WNW 13 17 7 9 1008.9 - 0.0
23/05:00pm 31.3 35.0 25.2 70 4.3 W 15 20 8 11 1008.5 - 0.0
23/04:30pm 32.0 36.2 24.8 65 5.1 W 11 17 6 9 1008.5 - 0.0
23/04:00pm 32.4 36.8 25.7 68 4.8 W 13 17 7 9 1008.4 - 0.0
23/03:30pm 32.8 37.4 25.3 64 5.3 WNW 11 17 6 9 1008.5 - 0.0
23/03:00pm 33.0 36.8 25.3 64 5.5 W 15 20 8 11 1008.5 1008.4 0.0
23/02:30pm 32.6 36.9 24.9 64 5.4 W 11 19 6 10 1008.7 - 0.0
23/02:00pm 32.7 36.8 25.2 64 5.3 WSW 13 17 7 9 1009.0 - 0.0
23/01:30pm 34.2 38.0 25.3 59 6.3 WSW 15 24 8 13 1009.4 - 0.0
23/01:00pm 33.9 37.9 25.6 62 5.9 SW 15 24 8 13 1009.8 - 0.0
23/12:30pm 33.6 37.6 25.6 63 5.7 SW 15 22 8 12 1010.3 - 0.0
23/12:00pm 33.6 37.4 25.3 62 5.9 SW 15 24 8 13 1010.7 1010.6 0.0
23/11:30am 33.3 36.5 25.0 61 5.9 SW 17 24 9 13 1011.1 - 0.0
23/11:00am 33.5 37.8 25.5 63 5.7 SSW 13 20 7 11 1011.4 - 0.0
23/10:30am 32.7 36.5 24.7 62 5.6 S 13 22 7 12 1011.7 - 0.0
23/10:00am 31.9 36.5 24.7 65 5.1 S 9 15 5 8 1011.9 - 0.0
23/09:30am 31.3 35.9 25.4 71 4.2 S 11 17 6 9 1012.2 - 0.0
23/09:00am 30.4 35.1 25.0 73 3.8 S 9 13 5 7 1011.9 1011.8 0.0
23/08:30am 30.0 34.6 25.3 76 3.3 SW 11 17 6 9 1011.5 - 0.0
23/08:00am 29.7 33.9 25.4 78 3.0 SW 13 20 7 11 1010.9 - 0.0
23/07:30am 29.4 33.8 25.6 80 2.7 SW 13 19 7 10 1010.5 - 0.0
23/07:00am 28.7 32.9 25.3 82 2.4 WSW 13 17 7 9 1010.1 - 0.0
23/06:30am 28.5 32.7 25.3 83 2.2 WSW 13 17 7 9 1009.6 - 0.0
23/06:00am 28.2 32.6 25.0 83 2.2 WSW 11 15 6 8 1009.5 1009.4 0.0
23/05:30am 28.4 32.5 25.2 83 2.2 WSW 13 17 7 9 1009.0 - 0.0
23/05:00am 28.4 32.1 25.2 83 2.2 W 15 20 8 11 1008.7 - 0.0
23/04:30am 28.5 31.7 24.9 81 2.5 W 17 22 9 12 1008.6 - 0.0
23/04:00am 28.6 31.8 25.0 81 2.5 W 17 22 9 12 1008.5 - 0.0
23/03:30am 28.7 31.6 25.1 81 2.5 W 19 24 10 13 1008.6 - 0.0
23/03:00am 28.6 31.4 25.0 81 2.5 W 19 24 10 13 1008.7 1008.6 0.0
23/02:30am 28.7 31.9 24.9 80 2.7 W 17 20 9 11 1009.0 - 0.0
23/02:00am 28.7 31.9 24.9 80 2.7 W 17 20 9 11 1009.4 - 0.0
23/01:30am 28.8 32.0 25.0 80 2.7 W 17 20 9 11 1009.9 - 0.0
23/01:00am 28.8 31.6 25.0 80 2.7 W 19 22 10 12 1010.3 - 0.0
23/12:30am 28.8 32.0 25.0 80 2.7 W 17 20 9 11 1010.7 - 0.0
23/12:00am 28.9 32.3 25.3 81 2.5 W 17 20 9 11 1010.7 1010.6 0.0
 
Date/Time
CST
Temp
°C
App
Temp
°C
Dew
Point
°C
Rel
Hum
%
Delta-T
°C
Wind Press
QNH
hPa
Press
MSL
hPa
Rain since
9am
mm
Dir  Spd
km/h
Gust
km/h
Spd
kts
Gust
kts
22/11:30pm 28.9 32.3 25.3 81 2.5 W 17 20 9 11 1011.1 - 0.0
22/11:00pm 29.0 32.4 25.2 80 2.7 W 17 20 9 11 1011.1 - 0.0
22/10:30pm 29.0 32.2 25.0 79 2.8 W 17 20 9 11 1011.1 - 0.0
22/10:00pm 29.1 32.3 24.9 78 2.9 W 17 22 9 12 1011.0 - 0.0
22/09:30pm 29.2 32.4 25.0 78 2.9 W 17 20 9 11 1010.9 - 0.0
22/09:00pm 29.3 32.4 24.8 77 3.2 W 17 20 9 11 1010.7 1010.6 0.0
22/08:30pm 29.4 32.6 24.9 77 3.2 W 17 20 9 11 1010.5 - 0.0
22/08:00pm 29.4 32.3 24.5 75 3.4 W 17 22 9 12 1010.3 - 0.0
22/07:30pm 29.5 32.6 24.8 76 3.3 WSW 17 24 9 13 1010.1 - 0.0
22/07:00pm 29.6 32.3 24.2 73 3.8 WSW 17 22 9 12 1009.7 - 0.0
22/06:30pm 30.0 33.5 24.9 74 3.6 WSW 15 22 8 12 1009.8 - 0.0
22/06:00pm 31.0 34.2 24.9 70 4.3 WSW 17 24 9 13 1009.4 1009.3 0.0
22/05:30pm 31.6 33.9 24.5 66 5.0 W 20 26 11 14 1009.2 - 0.0
22/05:00pm 32.6 34.9 24.1 61 5.9 WSW 19 26 10 14 1009.0 - 0.0
22/04:30pm 32.4 35.4 24.7 64 5.4 WSW 17 22 9 12 1009.0 - 0.0
22/04:00pm 33.5 36.9 25.2 62 5.9 W 17 22 9 12 1008.8 - 0.0
22/03:30pm 32.4 35.8 24.7 64 5.4 W 15 20 8 11 1009.2 - 0.0
22/03:00pm 33.9 37.3 24.7 58 6.5 W 15 20 8 11 1009.2 1009.1 0.0
22/02:30pm 33.6 36.7 24.2 58 6.6 W 15 20 8 11 1009.4 - 0.0
22/02:00pm 33.3 36.2 24.5 60 6.2 W 17 20 9 11 1009.7 - 0.0
22/01:30pm 33.6 37.2 25.0 60 6.1 W 15 20 8 11 1010.3 - 0.0
22/01:00pm 33.0 37.0 25.0 63 5.7 W 13 20 7 11 1010.8 - 0.0
22/12:30pm 32.5 36.5 25.1 65 5.2 W 13 17 7 9 1011.1 - 0.0
22/12:00pm 32.6 36.5 24.9 64 5.4 W 13 17 7 9 1011.7 1011.6 0.0
22/11:30am 32.3 36.4 24.6 64 5.4 WNW 11 15 6 8 1011.9 - 0.0
22/11:00am 32.8 37.2 25.1 64 5.4 WNW 11 13 6 7 1012.3 - 0.0
22/10:30am 31.7 35.8 24.6 66 5.0 W 11 15 6 8 1012.7 - 0.0
22/10:00am 31.2 34.8 24.3 66 4.8 W 13 15 7 8 1012.8 - 0.0
22/09:30am 31.4 35.6 24.8 68 4.6 WNW 11 13 6 7 1012.9 - 0.0
22/09:00am 31.0 35.0 24.4 68 4.6 W 11 15 6 8 1012.7 1012.6 0.0
22/08:30am 30.4 35.2 24.5 70 4.1 W 7 11 4 6 1012.7 - 0.0
22/08:00am 30.2 34.8 24.8 73 3.8 W 9 13 5 7 1012.5 - 0.0
22/07:30am 28.4 33.5 25.0 82 2.4 WSW 7 11 4 6 1012.0 - 0.0
22/07:00am 26.1 30.5 23.8 87 1.6 W 7 13 4 7 1011.5 - 0.0
22/06:30am 26.3 30.1 23.4 84 2.0 W 9 11 5 6 1011.3 - 0.0
22/06:00am 27.5 31.0 23.5 79 2.7 W 11 13 6 7 1010.9 1010.8 0.0
22/05:30am 28.3 32.5 24.7 81 2.5 W 11 13 6 7 1010.5 - 0.0
22/05:00am 28.4 32.5 24.6 80 2.6 W 11 15 6 8 1010.3 - 0.0
22/04:30am 28.4 32.4 24.4 79 2.8 W 11 15 6 8 1010.0 - 0.0
22/04:00am 28.6 32.1 24.2 77 3.1 W 13 17 7 9 1009.7 - 0.0
22/03:30am 28.7 32.3 24.3 77 3.1 W 13 17 7 9 1009.7 - 0.0
22/03:00am 28.8 32.4 24.4 77 3.1 WSW 13 17 7 9 1009.8 1009.7 0.0
22/02:30am 28.8 32.5 24.6 78 2.9 W 13 19 7 10 1009.7 - 0.0
22/02:00am 28.8 32.9 24.6 78 2.9 WSW 11 19 6 10 1009.8 - 0.0
22/01:30am 28.8 32.4 24.4 77 3.1 W 13 17 7 9 1010.1 - 0.0
22/01:00am 28.9 32.6 24.5 77 3.1 WSW 13 17 7 9 1010.4 - 0.0
22/12:30am 28.9 32.4 24.2 76 3.3 W 13 17 7 9 1010.7 - 0.0
22/12:00am 29.0 32.9 24.8 78 2.9 W 13 17 7 9 1010.9 1010.8 0.0
 
Date/Time
CST
Temp
°C
App
Temp
°C
Dew
Point
°C
Rel
Hum
%
Delta-T
°C
Wind Press
QNH
hPa
Press
MSL
hPa
Rain since
9am
mm
Dir  Spd
km/h
Gust
km/h
Spd
kts
Gust
kts
21/11:30pm 29.1 32.5 24.6 76 3.1 W 15 19 8 10 1011.1 - 0.0
21/11:00pm 29.2 32.5 24.5 76 3.3 W 15 19 8 10 1011.2 - 0.0
21/10:30pm 29.2 32.9 24.5 76 3.3 W 13 17 7 9 1011.2 - 0.0
21/10:00pm 29.2 32.9 24.5 76 3.3 W 13 17 7 9 1010.8 - 0.0
21/09:30pm 29.2 33.4 24.7 77 3.1 WSW 11 17 6 9 1010.6 - 0.0
21/09:00pm 29.3 33.4 24.6 76 3.3 WSW 11 19 6 10 1010.8 1010.7 0.0
21/08:30pm 29.4 33.6 24.7 76 3.3 WSW 11 15 6 8 1010.7 - 0.0
21/08:00pm 29.5 33.6 24.6 75 3.4 W 11 17 6 9 1010.5 - 0.0
21/07:30pm 29.7 33.7 25.0 76 3.3 WSW 13 15 7 8 1010.4 - 0.0
21/07:00pm 29.9 33.8 24.3 72 3.9 WSW 11 17 6 9 1010.2 - 0.0
21/06:30pm 30.3 33.7 24.0 69 4.4 W 13 19 7 10 1009.8 - 0.0
21/06:00pm 31.0 35.4 24.4 68 4.6 W 9 15 5 8 1009.6 1009.5 0.0
21/05:30pm 31.3 34.5 23.7 64 5.3 W 13 17 7 9 1009.7 - 0.0
21/05:00pm 32.2 35.0 24.3 63 5.5 W 17 22 9 12 1009.4 - 0.0
21/04:30pm 32.2 35.0 24.3 63 5.5 W 17 24 9 13 1009.0 - 0.0
21/04:00pm 32.8 36.2 24.0 60 6.1 W 13 20 7 11 1009.4 - 0.0
21/03:30pm 33.4 36.1 23.4 55 6.9 WSW 15 22 8 12 1009.5 - 0.0
21/03:00pm 33.4 36.4 24.0 58 6.6 W 15 20 8 11 1010.0 1009.9 0.0
21/02:30pm 33.4 36.2 23.7 56 6.8 WSW 15 20 8 11 1010.2 - 0.0
21/02:00pm 33.1 36.3 23.7 57 6.5 W 13 20 7 11 1010.8 - 0.0
21/01:30pm 32.4 35.9 24.2 62 5.7 W 13 17 7 9 1011.4 - 0.0
21/01:00pm 32.5 35.9 23.4 58 6.3 W 11 15 6 8 1012.0 - 0.0
21/12:30pm 32.9 36.5 23.8 58 6.3 WNW 11 17 6 9 1012.4 - 0.0
21/12:00pm 32.8 36.6 24.0 60 6.1 NW 11 15 6 8 1012.8 1012.7 0.0
21/11:30am 32.4 36.5 23.9 61 5.9 NW 9 11 5 6 1013.3 - 0.0
21/11:00am 31.9 35.7 23.4 60 5.9 WNW 9 11 5 6 1013.6 - 0.0
21/10:30am 32.0 35.5 23.5 60 5.9 WNW 11 13 6 7 1013.9 - 0.0
21/10:00am 32.2 36.3 24.0 62 5.7 WNW 9 13 5 7 1014.2 - 0.0
21/09:30am 31.8 35.8 24.4 65 5.2 WNW 11 15 6 8 1014.2 - 0.0
21/09:00am 31.4 35.0 24.3 66 5.0 WNW 13 17 7 9 1014.1 1014.0 0.0
21/08:30am 30.7 34.3 24.4 69 4.4 W 13 15 7 8 1013.8 - 0.0
21/08:00am 29.9 34.1 24.8 74 3.6 WNW 11 15 6 8 1013.4 - 0.0
21/07:30am 29.3 33.4 24.6 76 3.3 WNW 11 15 6 8 1013.0 - 0.0
21/07:00am 28.8 32.9 24.6 78 2.9 WNW 11 17 6 9 1012.7 - 0.0
21/06:30am 28.6 32.3 24.6 79 2.8 WNW 13 17 7 9 1012.2 - 0.0
21/06:00am 28.5 31.9 24.1 77 3.0 NW 13 17 7 9 1012.0 1011.9 0.0
21/05:30am 28.6 32.1 24.8 80 2.7 NW 15 19 8 10 1011.5 - 0.0
21/05:00am 28.6 31.8 24.4 78 2.9 NW 15 19 8 10 1011.4 - 0.0
21/04:30am 28.7 32.1 24.7 79 2.8 NNW 15 19 8 10 1011.2 - 0.0
21/04:00am 28.9 32.3 24.7 78 2.9 NW 15 20 8 11 1011.1 - 0.0
21/03:30am 28.9 32.4 24.9 79 2.8 WNW 15 19 8 10 1011.0 - 0.0
21/03:00am 29.1 32.8 25.1 79 2.8 WNW 15 17 8 9 1011.1 1011.0 0.0
21/02:30am 29.0 32.1 24.8 78 2.9 WNW 17 20 9 11 1011.1 - 0.0
21/02:00am 29.0 32.2 25.0 79 2.8 WNW 17 20 9 11 1011.1 - 0.0
21/01:30am 29.0 32.2 25.0 79 2.8 WNW 17 20 9 11 1011.1 - 0.0
21/01:00am 29.1 32.5 25.3 80 2.7 WNW 17 20 9 11 1011.4 - 0.0
21/12:30am 29.1 32.3 24.9 78 2.9 WNW 17 20 9 11 1011.6 - 0.0
21/12:00am 29.1 32.6 24.9 78 2.9 WNW 15 19 8 10 1011.9 1011.8 0.0
 
Date/Time
CST
Temp
°C
App
Temp
°C
Dew
Point
°C
Rel
Hum
%
Delta-T
°C
Wind Press
QNH
hPa
Press
MSL
hPa
Rain since
9am
mm
Dir  Spd
km/h
Gust
km/h
Spd
kts
Gust
kts
20/11:30pm 29.2 32.9 25.2 79 2.8 WNW 15 19 8 10 1012.1 - 0.0
20/11:00pm 29.2 32.9 25.2 79 2.8 WNW 15 19 8 10 1012.0 - 0.0
20/10:30pm 29.2 32.8 25.0 78 2.9 WNW 15 19 8 10 1011.9 - 0.0
20/10:00pm 29.2 33.0 24.7 77 3.1 WNW 13 17 7 9 1011.9 - 0.0
20/09:30pm 29.3 32.7 24.6 76 3.3 W 15 20 8 11 1011.6 - 0.0
20/09:00pm 29.4 32.8 24.7 76 3.3 W 15 19 8 10 1011.3 1011.2 0.0
20/08:30pm 29.4 33.1 24.5 75 3.4 WSW 13 17 7 9 1011.4 - 0.0
20/08:00pm 29.6 33.0 24.7 75 3.4 WSW 15 19 8 10 1010.9 - 0.0
20/07:30pm 29.5 33.2 24.6 75 3.4 WSW 13 19 7 10 1010.6 - 0.0
20/07:00pm 29.7 33.3 24.3 73 3.8 WSW 13 20 7 11 1010.3 - 0.0

Other Formats:

Comma delimited format used in spreadsheet applications
http://www.bom.gov.au/fwo/IDD60801/IDD60801.94122.axf

JavaScript Object Notation format (JSON) in row-major order
http://www.bom.gov.au/fwo/IDD60801/IDD60801.94122.json